Perolandia, Brazil
Current Conditions -  °F | °C
As of 8:00 PM on Tuesday 25 Nov 2014 (Local Time) from SBBW Reporting Station
Overcast Overcast  
Wind Chill: 73°   Ceiling: 8000
Heat Index: 73°   Visibility: 6mi
Dew Point: 72°   Wind: 2mph
Humidity: 94%   Direction: 220°SW
Pressure: 29.83"   Gusts: NA
Location:  17.53°S, 52.06°W
Report Text: SBBW 252200Z 22002KT 9999 FEW015 SCT020 OVC080 23/22 Q1010
Loading
Personal Weather Stations






























Interactive Weather Map New forecast layout! Learn more

10-Day Weather Forecast

Advertisements
Track Severe Weather on mobile